Terminal Aerodrome Forecast
Issued by NWS

Home | Current Version | Previous Version | Text Only | Print | Product List | Glossary On
Versions: 1 2 3 4 5 6 7 8 9 10 11 12 13 14 15 16 17 18 19 20 21 22 23
000
FTUS41 KGYX 011956 AAA
TAFLEB
TAF AMD
KLEB 011956Z 0120/0218 21009G17KT P6SM BKN013 BKN050
      TEMPO 0120/0122 3SM -SHRA BR OVC012
     FM020000 21007G17KT P6SM OVC020 WS020/26045KT
     FM020500 21008G18KT P6SM -SHRA BKN025
     FM021300 26017G37KT P6SM SCT035=

USA.gov is the U.S. government's official web portal to all federal, state and local government web resources and services.